Time;durP1;ratioP1;P1;durP2;ratioP2;P2;SDS_P1;SDS_P2;PMS_P1;PMS_P2;Temp;Humidity;BMP_temperature;BMP_pressure;BME280_temperature;BME280_humidity;BME280_pressure;Samples;Min_cycle;Max_cycle;Signal;HPM_P1;HPM_P2
2021/05/13 00:00:38;;;;;;;;;;;9.10;99.90;;;;;;5093017;28;19911;-80
2021/05/13 00:03:03;;;;;;;;;;;9.10;99.90;;;;;;5092907;28;20333;-79
2021/05/13 00:05:29;;;;;;;;;;;9.20;99.90;;;;;;5092757;28;20454;-79
2021/05/13 00:07:54;;;;;;;;;;;9.30;99.90;;;;;;5092882;28;19904;-79
2021/05/13 00:10:21;;;;;;;;;;;9.30;99.90;;;;;;5094329;28;19904;-80
2021/05/13 00:12:54;;;;;;;;;;;9.30;99.90;;;;;;5094268;28;19904;-80
2021/05/13 00:15:21;;;;;;;;;;;9.20;99.90;;;;;;5092993;28;19954;-80
2021/05/13 00:17:47;;;;;;;;;;;9.20;99.90;;;;;;5092898;28;19908;-80
2021/05/13 00:20:15;;;;;;;;;;;9.20;99.90;;;;;;5092760;28;19973;-80
2021/05/13 00:22:41;;;;;;;;;;;9.20;99.90;;;;;;5094172;28;19957;-81
2021/05/13 00:25:06;;;;;;;;;;;9.20;99.90;;;;;;5092952;28;19904;-80
2021/05/13 00:27:32;;;;;;;;;;;9.20;99.90;;;;;;5092575;28;20363;-80
2021/05/13 00:29:57;;;;;;;;;;;9.20;99.90;;;;;;5092563;28;19908;-80
2021/05/13 00:32:23;;;;;;;;;;;9.10;99.90;;;;;;5093822;28;19904;-81
2021/05/13 00:34:48;;;;;;;;;;;9.10;99.90;;;;;;5092555;28;19919;-79
2021/05/13 00:37:14;;;;;;;;;;;9.00;99.90;;;;;;5092568;28;19927;-79
2021/05/13 00:39:39;;;;;;;;;;;9.00;99.90;;;;;;5092455;28;20298;-79
2021/05/13 00:42:05;;;;;;;;;;;9.00;99.90;;;;;;5092439;28;19981;-79
2021/05/13 00:44:32;;;;;;;;;;;9.00;99.90;;;;;;5092240;28;20358;-79
2021/05/13 00:46:58;;;;;;;;;;;8.90;99.90;;;;;;5092209;28;19908;-79
2021/05/13 00:49:23;;;;;;;;;;;8.90;99.90;;;;;;5092120;28;20011;-79
2021/05/13 00:51:49;;;;;;;;;;;8.90;99.90;;;;;;5092219;28;19949;-80
2021/05/13 00:54:17;;;;;;;;;;;8.90;99.90;;;;;;5092403;28;19904;-80
2021/05/13 00:56:42;;;;;;;;;;;8.80;99.90;;;;;;5093405;28;19905;-80
2021/05/13 00:59:10;;;;;;;;;;;8.80;99.90;;;;;;5091866;28;19919;-79
2021/05/13 01:04:11;;;;;;;;;;;8.80;99.90;;;;;;5093889;28;19915;-80
2021/05/13 01:06:36;;;;;;;;;;;8.70;99.90;;;;;;5091997;28;20159;-81
2021/05/13 01:09:07;;;;;;;;;;;8.70;99.90;;;;;;5091633;28;19904;-80
2021/05/13 01:11:35;;;;;;;;;;;8.70;99.90;;;;;;5092177;28;20072;-79
2021/05/13 01:14:25;;;;;;;;;;;8.70;99.90;;;;;;5091781;28;19949;-78
2021/05/13 01:16:58;;;;;;;;;;;8.60;99.90;;;;;;5092596;28;20272;-79
2021/05/13 01:19:23;;;;;;;;;;;8.70;99.90;;;;;;5095609;28;19935;-78
2021/05/13 01:21:49;;;;;;;;;;;8.60;99.90;;;;;;5096140;28;19904;-81
2021/05/13 01:24:14;;;;;;;;;;;8.50;99.90;;;;;;5096332;28;19990;-81
2021/05/13 01:26:44;;;;;;;;;;;8.50;99.90;;;;;;5096058;28;20247;-81
2021/05/13 01:29:11;;;;;;;;;;;8.50;99.90;;;;;;5095845;28;19910;-80
2021/05/13 01:31:36;;;;;;;;;;;8.50;99.90;;;;;;5096148;28;20346;-80
2021/05/13 01:34:03;;;;;;;;;;;8.50;99.90;;;;;;5096013;28;19904;-78
2021/05/13 01:36:29;;;;;;;;;;;8.40;99.90;;;;;;5096087;28;19915;-80
2021/05/13 01:38:56;;;;;;;;;;;8.40;99.90;;;;;;5095545;28;19908;-80
2021/05/13 01:41:21;;;;;;;;;;;8.40;99.90;;;;;;5096340;28;19908;-80
2021/05/13 01:43:47;;;;;;;;;;;8.40;99.90;;;;;;5096495;28;19915;-80
2021/05/13 01:46:12;;;;;;;;;;;8.50;99.90;;;;;;5096954;28;19954;-79
2021/05/13 01:48:38;;;;;;;;;;;8.50;99.90;;;;;;5096386;28;19907;-80
2021/05/13 01:51:03;;;;;;;;;;;8.40;99.90;;;;;;5099838;28;20075;-80
2021/05/13 01:53:29;;;;;;;;;;;8.40;99.90;;;;;;5110759;28;19904;-79
2021/05/13 01:55:54;;;;;;;;;;;8.50;99.90;;;;;;5115290;28;19903;-78
2021/05/13 01:58:20;;;;;;;;;;;8.50;99.90;;;;;;5116318;28;19974;-79
2021/05/13 02:00:45;;;;;;;;;;;8.60;99.90;;;;;;5109056;28;19911;-78
2021/05/13 02:03:11;;;;;;;;;;;8.60;99.90;;;;;;5095266;28;19911;-78
2021/05/13 02:05:37;;;;;;;;;;;8.70;99.90;;;;;;5095412;28;19922;-81
2021/05/13 02:08:03;;;;;;;;;;;8.90;99.90;;;;;;5095144;28;20389;-79
2021/05/13 02:10:28;;;;;;;;;;;9.00;99.90;;;;;;5095033;28;19904;-79
2021/05/13 02:12:56;;;;;;;;;;;9.10;99.90;;;;;;5095218;28;19998;-78
2021/05/13 02:15:22;;;;;;;;;;;9.20;99.90;;;;;;5095273;28;19904;-81
2021/05/13 02:17:48;;;;;;;;;;;9.10;99.90;;;;;;5094900;28;19912;-78
2021/05/13 02:20:15;;;;;;;;;;;9.20;99.90;;;;;;5094713;28;19904;-81
2021/05/13 02:22:40;;;;;;;;;;;9.20;99.90;;;;;;5094807;28;19908;-80
2021/05/13 02:25:06;;;;;;;;;;;9.30;99.90;;;;;;5095128;28;20011;-80
2021/05/13 02:27:32;;;;;;;;;;;9.30;99.90;;;;;;5094717;28;20097;-79
2021/05/13 02:29:57;;;;;;;;;;;9.30;99.90;;;;;;5094450;28;20032;-80
2021/05/13 02:32:23;;;;;;;;;;;9.40;99.90;;;;;;5094749;28;19911;-80
2021/05/13 02:34:49;;;;;;;;;;;9.40;99.90;;;;;;5094394;28;20471;-81
2021/05/13 02:37:14;;;;;;;;;;;9.40;99.90;;;;;;5094323;28;19912;-81
2021/05/13 02:39:40;;;;;;;;;;;9.40;99.90;;;;;;5094140;28;19904;-78
2021/05/13 02:42:05;;;;;;;;;;;9.40;99.90;;;;;;5094416;28;19904;-81
2021/05/13 02:44:31;;;;;;;;;;;9.50;99.90;;;;;;5094465;28;19904;-80
2021/05/13 02:46:56;;;;;;;;;;;9.40;99.90;;;;;;5094458;28;19904;-81
2021/05/13 02:49:21;;;;;;;;;;;9.40;99.90;;;;;;5093967;28;19908;-81
2021/05/13 02:51:47;;;;;;;;;;;9.40;99.90;;;;;;5094280;28;19907;-81
2021/05/13 02:54:12;;;;;;;;;;;9.30;99.90;;;;;;5094066;28;19912;-80
2021/05/13 02:56:38;;;;;;;;;;;9.20;99.90;;;;;;5094539;28;19914;-79
2021/05/13 02:59:03;;;;;;;;;;;9.20;99.90;;;;;;5093826;28;20422;-80
2021/05/13 03:01:29;;;;;;;;;;;9.10;99.90;;;;;;5093991;28;19904;-80
2021/05/13 03:03:56;;;;;;;;;;;9.10;99.90;;;;;;5094203;28;19966;-80
2021/05/13 03:06:22;;;;;;;;;;;9.10;99.90;;;;;;5094029;28;19927;-78
2021/05/13 03:08:57;;;;;;;;;;;9.10;99.90;;;;;;5093789;28;20390;-81
2021/05/13 03:11:23;;;;;;;;;;;9.00;99.90;;;;;;5093960;28;19904;-79
2021/05/13 03:13:55;;;;;;;;;;;9.00;99.90;;;;;;5093655;28;19904;-79
2021/05/13 03:16:21;;;;;;;;;;;8.90;99.90;;;;;;5093927;28;19910;-79
2021/05/13 03:18:50;;;;;;;;;;;8.90;99.90;;;;;;5093511;28;19908;-79
2021/05/13 03:24:29;;;;;;;;;;;8.90;99.90;;;;;;5094966;28;19904;-78
2021/05/13 03:29:30;;;;;;;;;;;8.70;99.90;;;;;;5074420;28;19999;-79
2021/05/13 03:31:56;;;;;;;;;;;8.60;99.90;;;;;;5093463;28;19947;-80
2021/05/13 03:34:21;;;;;;;;;;;8.60;99.90;;;;;;5093146;28;19912;-81
2021/05/13 03:36:47;;;;;;;;;;;8.50;99.90;;;;;;5093429;28;20282;-80
2021/05/13 03:39:12;;;;;;;;;;;8.50;99.90;;;;;;5093004;28;19923;-79
2021/05/13 03:41:38;;;;;;;;;;;8.40;99.90;;;;;;5092954;28;19934;-80
2021/05/13 03:44:04;;;;;;;;;;;8.40;99.90;;;;;;5093449;28;19946;-80
2021/05/13 03:46:30;;;;;;;;;;;8.30;99.90;;;;;;5093343;28;20312;-80
2021/05/13 03:48:55;;;;;;;;;;;8.30;99.90;;;;;;5093098;28;20363;-79
2021/05/13 03:51:21;;;;;;;;;;;8.30;99.90;;;;;;5093078;28;19904;-80
2021/05/13 03:53:46;;;;;;;;;;;8.30;99.90;;;;;;5093106;28;19931;-80
2021/05/13 03:56:13;;;;;;;;;;;8.30;99.90;;;;;;5093289;28;19995;-80
2021/05/13 03:58:43;;;;;;;;;;;8.30;99.90;;;;;;5092629;28;19911;-80
2021/05/13 04:01:11;;;;;;;;;;;8.20;99.90;;;;;;5092950;28;19911;-80
2021/05/13 04:03:36;;;;;;;;;;;8.20;99.90;;;;;;5092903;28;19904;-80
2021/05/13 04:06:02;;;;;;;;;;;8.20;99.90;;;;;;5092819;28;19953;-81
2021/05/13 04:08:27;;;;;;;;;;;8.20;99.90;;;;;;5092651;28;19973;-80
2021/05/13 04:10:53;;;;;;;;;;;8.20;99.90;;;;;;5092703;28;19910;-80
2021/05/13 04:13:18;;;;;;;;;;;8.30;99.90;;;;;;5092910;28;20320;-79
2021/05/13 04:15:46;;;;;;;;;;;8.30;99.90;;;;;;5093210;28;20003;-80
2021/05/13 04:18:12;;;;;;;;;;;8.30;99.90;;;;;;5083683;28;19912;-80
2021/05/13 04:20:40;;;;;;;;;;;8.30;99.90;;;;;;5080465;28;19914;-80
2021/05/13 04:23:06;;;;;;;;;;;8.30;99.90;;;;;;5077448;28;19963;-80
2021/05/13 04:25:32;;;;;;;;;;;8.40;99.90;;;;;;5072349;28;19905;-80
2021/05/13 04:27:58;;;;;;;;;;;8.50;99.90;;;;;;5072662;28;19924;-80
2021/05/13 04:30:23;;;;;;;;;;;8.60;99.90;;;;;;5080501;28;19908;-80
2021/05/13 04:32:49;;;;;;;;;;;8.70;99.90;;;;;;5080335;28;19904;-80
2021/05/13 04:35:14;;;;;;;;;;;8.70;99.90;;;;;;5071921;28;19913;-80
2021/05/13 04:37:40;;;;;;;;;;;8.90;99.90;;;;;;5078585;28;19927;-80
2021/05/13 04:40:05;;;;;;;;;;;8.90;99.90;;;;;;5081874;28;20351;-80
2021/05/13 04:42:31;;;;;;;;;;;9.00;99.90;;;;;;5079638;28;19908;-80
2021/05/13 04:44:57;;;;;;;;;;;9.00;99.90;;;;;;5080554;28;19984;-80
2021/05/13 04:47:34;;;;;;;;;;;9.10;99.90;;;;;;5082198;28;19991;-80
2021/05/13 04:49:59;;;;;;;;;;;9.20;99.90;;;;;;5073591;28;19912;-81
2021/05/13 04:52:25;;;;;;;;;;;9.30;99.90;;;;;;5074080;28;19909;-81
2021/05/13 04:54:51;;;;;;;;;;;9.30;99.90;;;;;;5086898;28;19935;-81
2021/05/13 04:57:17;;;;;;;;;;;9.40;99.90;;;;;;5090537;28;19905;-80
2021/05/13 04:59:43;;;;;;;;;;;9.50;99.90;;;;;;5091189;28;19915;-80
2021/05/13 05:02:09;;;;;;;;;;;9.60;99.90;;;;;;5078536;28;19939;-80
2021/05/13 05:04:34;;;;;;;;;;;9.70;99.90;;;;;;5070660;28;19905;-80
2021/05/13 05:07:00;;;;;;;;;;;9.80;99.90;;;;;;5071933;28;19912;-80
2021/05/13 05:09:25;;;;;;;;;;;9.80;99.90;;;;;;5070569;28;20319;-80
2021/05/13 05:11:51;;;;;;;;;;;9.70;99.90;;;;;;5070610;28;19911;-81
2021/05/13 05:14:17;;;;;;;;;;;9.80;99.90;;;;;;5070791;28;19911;-80
2021/05/13 05:16:43;;;;;;;;;;;9.70;99.90;;;;;;5070680;28;20386;-80
2021/05/13 05:19:08;;;;;;;;;;;9.70;99.90;;;;;;5072026;28;19916;-81
2021/05/13 05:21:34;;;;;;;;;;;9.80;99.90;;;;;;5071861;28;20367;-80
2021/05/13 05:23:59;;;;;;;;;;;10.00;99.90;;;;;;5071726;28;19904;-80
2021/05/13 05:26:25;;;;;;;;;;;10.30;99.90;;;;;;5071577;28;19919;-80
2021/05/13 05:28:50;;;;;;;;;;;10.40;99.90;;;;;;5071753;28;19951;-80
2021/05/13 05:31:16;;;;;;;;;;;10.60;99.90;;;;;;5072712;28;19912;-80
2021/05/13 05:33:41;;;;;;;;;;;11.30;99.90;;;;;;5071212;28;20006;-80
2021/05/13 05:36:07;;;;;;;;;;;12.10;99.90;;;;;;5070911;28;19962;-80
2021/05/13 05:38:32;;;;;;;;;;;13.30;99.90;;;;;;5071080;28;19954;-81
2021/05/13 05:40:58;;;;;;;;;;;15.00;99.90;;;;;;5070830;28;19904;-79
2021/05/13 05:43:23;;;;;;;3.00;2.00;;;16.80;99.90;;;;;;5070315;28;19940;-81
2021/05/13 05:45:49;;;;;;;;;;;18.50;99.90;;;;;;5070100;28;20043;-81
2021/05/13 05:48:14;;;;;;;3.05;2.50;;;19.50;99.90;;;;;;5069757;28;19948;-80
2021/05/13 05:50:42;;;;;;;5.63;2.30;;;20.50;99.90;;;;;;5069433;28;20471;-81
2021/05/13 05:53:08;;;;;;;2.85;2.20;;;21.20;99.90;;;;;;5071395;28;20083;-80
2021/05/13 05:55:34;;;;;;;4.97;2.20;;;23.20;99.90;;;;;;5070254;28;20056;-82
2021/05/13 05:58:01;;;;;;;3.00;2.03;;;23.50;97.10;;;;;;5070092;28;20376;-81
2021/05/13 06:00:27;;;;;;;4.20;1.80;;;23.90;94.20;;;;;;5069563;28;20060;-81
2021/05/13 06:02:53;;;;;;;3.38;2.30;;;24.80;92.70;;;;;;5070540;28;20039;-80
2021/05/13 06:05:19;;;;;;;4.17;2.20;;;25.40;86.20;;;;;;5074136;28;20020;-80
2021/05/13 06:07:44;;;;;;;4.17;2.23;;;24.60;87.80;;;;;;5074271;28;20024;-82
2021/05/13 06:10:12;;;;;;;2.87;2.57;;;25.50;85.70;;;;;;5074070;28;20023;-82
2021/05/13 06:12:39;;;;;;;5.00;2.33;;;25.20;83.90;;;;;;5075436;28;20070;-82
2021/05/13 06:15:05;;;;;;;;;;;25.30;83.30;;;;;;5075221;28;20031;-81
2021/05/13 06:17:31;;;;;;;3.00;1.67;;;25.50;82.20;;;;;;5074934;28;19941;-81
2021/05/13 06:20:00;;;;;;;2.00;1.70;;;27.00;76.70;;;;;;5075446;28;20036;-81
2021/05/13 06:22:27;;;;;;;1.90;1.60;;;26.10;75.80;;;;;;5074691;28;20028;-82
2021/05/13 06:24:53;;;;;;;;;;;25.80;79.40;;;;;;5075379;28;20127;-83
2021/05/13 06:27:20;;;;;;;2.10;1.80;;;26.10;77.40;;;;;;5075247;28;19947;-82
2021/05/13 06:29:46;;;;;;;1.70;1.60;;;26.90;76.50;;;;;;5074676;28;20514;-81
2021/05/13 06:32:12;;;;;;;5.05;2.15;;;26.30;73.40;;;;;;5074839;28;20060;-83
2021/05/13 06:34:37;;;;;;;3.70;2.03;;;26.00;76.10;;;;;;5082715;28;20028;-80
2021/05/13 06:37:03;;;;;;;;;;;26.50;75.40;;;;;;5085936;28;20407;-81
2021/05/13 06:39:32;;;;;;;2.85;1.70;;;26.50;74.80;;;;;;5083769;28;19969;-81
2021/05/13 06:42:01;;;;;;;2.28;1.70;;;26.40;74.00;;;;;;5083508;28;20082;-82
2021/05/13 06:44:26;;;;;;;2.75;1.60;;;26.70;74.90;;;;;;5085205;28;20076;-81
2021/05/13 06:46:52;;;;;;;1.87;1.57;;;26.70;75.00;;;;;;5083748;28;20020;-81
2021/05/13 06:49:18;;;;;;;2.57;1.77;;;27.20;73.10;;;;;;5088194;28;20040;-79
2021/05/13 06:51:43;;;;;;;2.47;1.73;;;27.80;71.30;;;;;;5083330;28;20031;-82
2021/05/13 06:54:09;;;;;;;2.80;1.90;;;27.80;71.10;;;;;;5086956;28;20031;-82
2021/05/13 06:56:35;;;;;;;2.95;1.90;;;28.00;70.00;;;;;;5084425;28;20036;-82
2021/05/13 06:59:01;;;;;;;2.60;2.23;;;28.30;67.20;;;;;;5081003;28;20104;-83
2021/05/13 07:01:27;;;;;;;3.73;1.60;;;28.30;68.90;;;;;;5074526;28;20051;-82
2021/05/13 07:03:52;;;;;;;1.83;1.67;;;27.70;71.30;;;;;;5074733;28;20025;-81
2021/05/13 07:06:18;;;;;;;1.88;1.70;;;28.00;69.90;;;;;;5075505;28;20056;-81
2021/05/13 07:08:44;;;;;;;4.93;1.63;;;28.90;67.20;;;;;;5085699;28;20063;-81
2021/05/13 07:11:09;;;;;;;4.40;1.53;;;27.90;64.40;;;;;;5082581;28;20029;-82
2021/05/13 07:13:36;;;;;;;3.60;2.40;;;28.50;65.90;;;;;;5084055;28;20066;-81
2021/05/13 07:16:02;;;;;;;1.95;1.63;;;29.30;63.60;;;;;;5084019;28;20013;-83
2021/05/13 07:18:28;;;;;;;2.38;1.73;;;29.20;63.90;;;;;;5083341;28;20027;-82
2021/05/13 07:20:54;;;;;;;1.92;1.40;;;28.40;65.90;;;;;;5084834;28;20115;-82
2021/05/13 07:23:19;;;;;;;2.43;2.23;;;29.70;65.30;;;;;;5085007;28;20024;-83
2021/05/13 07:25:47;;;;;;;2.43;1.60;;;30.10;61.00;;;;;;5083271;28;20020;-82
2021/05/13 07:28:13;;;;;;;2.75;1.40;;;29.90;61.70;;;;;;5084591;28;20164;-83
2021/05/13 07:30:39;;;;;;;1.80;1.65;;;29.10;64.30;;;;;;5084518;28;19908;-82
2021/05/13 07:33:05;;;;;;;2.95;1.42;;;29.90;64.70;;;;;;5081879;28;20097;-82
2021/05/13 07:35:31;;;;;;;2.25;1.70;;;29.90;60.80;;;;;;5084496;28;20100;-82
2021/05/13 07:37:57;;;;;;;2.33;1.83;;;29.50;63.60;;;;;;5082221;28;20454;-82
2021/05/13 07:40:25;;;;;;;1.58;1.33;;;30.00;62.10;;;;;;5084317;28;20545;-82
2021/05/13 07:42:51;;;;;;;1.73;1.60;;;30.20;61.50;;;;;;5083137;28;20449;-81
2021/05/13 07:45:17;;;;;;;1.97;1.80;;;31.10;59.60;;;;;;5082204;28;20112;-80
2021/05/13 07:47:44;;;;;;;2.22;1.38;;;30.60;60.10;;;;;;5083110;28;20025;-81
2021/05/13 07:50:15;;;;;;;1.65;1.45;;;30.10;62.80;;;;;;5083225;28;20028;-81
2021/05/13 07:52:41;;;;;;;2.20;1.80;;;29.80;61.10;;;;;;5081754;28;20107;-81
2021/05/13 07:55:08;;;;;;;2.85;1.85;;;30.80;60.70;;;;;;5082925;28;20059;-83
2021/05/13 07:57:34;;;;;;;6.05;1.73;;;31.30;57.60;;;;;;5083972;28;20028;-81
2021/05/13 08:00:00;;;;;;;3.58;1.60;;;31.00;59.60;;;;;;5081857;28;20425;-82
2021/05/13 08:02:26;;;;;;;1.92;1.55;;;31.50;56.70;;;;;;5083982;28;20052;-83
2021/05/13 08:04:51;;;;;;;1.90;1.70;;;30.50;58.60;;;;;;5082514;28;20020;-81
2021/05/13 08:07:22;;;;;;;1.33;1.10;;;31.40;58.20;;;;;;5082381;28;20667;-82
2021/05/13 08:09:50;;;;;;;4.25;1.60;;;30.70;57.70;;;;;;5082159;28;20028;-81
2021/05/13 08:12:17;;;;;;;3.08;1.58;;;30.50;58.50;;;;;;5080023;28;20085;-81
2021/05/13 08:14:44;;;;;;;3.20;1.45;;;30.60;55.80;;;;;;5081774;28;20016;-82
2021/05/13 08:17:09;;;;;;;1.25;1.15;;;30.50;60.30;;;;;;5078587;28;20068;-82
2021/05/13 08:19:35;;;;;;;4.57;1.63;;;31.50;57.20;;;;;;5083767;28;20604;-82
2021/05/13 08:22:00;;;;;;;2.23;1.07;;;32.00;56.30;;;;;;5090413;28;20266;-82
2021/05/13 08:24:26;;;;;;;1.77;1.47;;;31.90;55.70;;;;;;5095201;28;20028;-81
2021/05/13 08:26:52;;;;;;;0.87;0.80;;;32.90;56.00;;;;;;5083434;28;20027;-82
2021/05/13 08:29:17;;;;;;;1.63;1.53;;;31.90;58.00;;;;;;5092001;28;20254;-82
2021/05/13 08:31:43;;;;;;;2.83;1.20;;;32.20;56.60;;;;;;5090289;28;20267;-82
2021/05/13 08:34:09;;;;;;;2.78;1.60;;;33.60;54.60;;;;;;5082499;28;20028;-81
2021/05/13 08:36:34;;;;;;;1.43;0.90;;;31.20;53.40;;;;;;5082770;28;20024;-80
2021/05/13 08:39:00;;;;;;;1.00;0.73;;;31.50;56.90;;;;;;5084170;28;20310;-81
2021/05/13 08:41:26;;;;;;;3.33;1.13;;;32.00;51.40;;;;;;5082770;28;20024;-82
2021/05/13 08:43:52;;;;;;;1.85;1.23;;;32.20;54.00;;;;;;5082479;28;20039;-81
2021/05/13 08:46:20;;;;;;;1.38;1.00;;;33.20;50.20;;;;;;5080554;28;20024;-80
2021/05/13 08:48:48;;;;;;;2.67;1.10;;;32.60;51.50;;;;;;5080112;28;20395;-81
2021/05/13 08:51:14;;;;;;;3.53;0.77;;;32.70;51.90;;;;;;5081755;28;20361;-79
2021/05/13 08:53:54;;;;;;;1.60;0.73;;;33.30;51.60;;;;;;5081452;28;20045;-82
2021/05/13 08:56:21;;;;;;;1.45;0.85;;;33.80;51.30;;;;;;5081004;28;20039;-81
2021/05/13 08:58:46;;;;;;;1.35;0.75;;;33.80;51.20;;;;;;5083016;28;20399;-81
2021/05/13 09:01:22;;;;;;;1.50;0.80;;;33.90;52.10;;;;;;5092034;28;20054;-82
2021/05/13 09:03:48;;;;;;;;;;;32.80;50.10;;;;;;5091980;28;20025;-82
2021/05/13 09:06:21;;;;;;;;;;;32.60;53.80;;;;;;5082323;28;19908;-83
2021/05/13 09:08:47;;;;;;;2.13;0.75;;;32.50;49.50;;;;;;5080624;28;19904;-82
2021/05/13 09:11:17;;;;;;;1.77;0.80;;;33.60;50.50;;;;;;5081207;28;20039;-82
2021/05/13 09:13:43;;;;;;;;;;;32.60;49.90;;;;;;5080905;28;20411;-82
2021/05/13 09:16:37;;;;;;;1.38;1.10;;;33.50;51.00;;;;;;5082987;28;19909;-81
2021/05/13 09:19:22;;;;;;;1.45;0.57;;;32.40;48.20;;;;;;5080882;28;20109;-83
2021/05/13 09:22:01;;;;;;;1.10;0.90;;;30.80;49.30;;;;;;5082150;28;20099;-81
2021/05/13 09:24:46;;;;;;;;;;;30.60;55.00;;;;;;5082668;28;19978;-83
2021/05/13 09:27:15;;;;;;;;;;;30.40;50.10;;;;;;5083085;28;19908;-81
2021/05/13 09:29:41;;;;;;;;;;;30.10;53.50;;;;;;5084013;28;19994;-83
2021/05/13 09:32:17;;;;;;;;;;;30.90;49.90;;;;;;5080943;28;19944;-81
2021/05/13 09:34:43;;;;;;;;;;;31.60;51.80;;;;;;5079153;28;19935;-82
2021/05/13 09:37:08;;;;;;;;;;;30.60;49.20;;;;;;5079459;28;20371;-81
2021/05/13 09:39:34;;;;;;;;;;;30.30;50.90;;;;;;5085010;28;19955;-80
2021/05/13 09:42:00;;;;;;;2.80;0.80;;;30.20;48.90;;;;;;5086034;28;20334;-81
2021/05/13 09:44:33;;;;;;;;;;;31.20;50.60;;;;;;5081980;28;20146;-81
2021/05/13 09:47:31;;;;;;;;;;;30.30;53.90;;;;;;5086630;28;19912;-82
2021/05/13 09:50:20;;;;;;;;;;;30.30;50.20;;;;;;5042685;28;19904;-81
2021/05/13 09:52:54;;;;;;;;;;;28.20;50.90;;;;;;5086310;28;19904;-80
2021/05/13 09:55:20;;;;;;;;;;;28.20;51.50;;;;;;5083409;28;19926;-80
2021/05/13 09:57:50;;;;;;;;;;;28.20;51.00;;;;;;5083921;28;20049;-82
2021/05/13 10:00:51;;;;;;;0.70;0.70;;;27.00;54.40;;;;;;5086358;28;20256;-80
2021/05/13 10:03:24;;;;;;;2.70;0.80;;;26.90;57.10;;;;;;4985892;28;20056;-81
2021/05/13 10:05:52;;;;;;;0.75;0.38;;;27.20;54.50;;;;;;5069809;28;20029;-82
2021/05/13 10:08:19;;;;;;;1.30;0.88;;;27.40;54.80;;;;;;5080588;28;20511;-82
2021/05/13 10:10:45;;;;;;;;;;;27.60;51.40;;;;;;5075134;28;20105;-81
2021/05/13 10:13:11;;;;;;;;;;;27.10;55.70;;;;;;5075526;28;20386;-80
2021/05/13 10:15:38;;;;;;;;;;;26.10;54.10;;;;;;5075193;28;19911;-81
2021/05/13 10:18:19;;;;;;;;;;;25.00;57.90;;;;;;5075631;28;19931;-81
2021/05/13 10:20:44;;;;;;;;;;;23.90;59.30;;;;;;5075010;28;19912;-82
2021/05/13 10:23:14;;;;;;;;;;;23.00;62.80;;;;;;5074963;28;19908;-82
2021/05/13 10:25:39;;;;;;;;;;;22.10;64.60;;;;;;5076308;28;19905;-83
2021/05/13 10:28:05;;;;;;;;;;;21.80;64.30;;;;;;5075854;28;20279;-83
2021/05/13 10:30:35;;;;;;;;;;;22.40;64.40;;;;;;5075492;28;19999;-82
2021/05/13 10:33:20;;;;;;;;;;;23.50;66.80;;;;;;5074879;28;19905;-82
2021/05/13 10:36:03;;;;;;;;;;;27.10;57.10;;;;;;5074730;28;20420;-82
2021/05/13 10:38:39;;;;;;;;;;;29.40;56.00;;;;;;5075605;28;19996;-82
2021/05/13 10:41:23;;;;;;;;;;;28.50;54.70;;;;;;5084807;28;19908;-83
2021/05/13 10:43:49;;;;;;;;;;;29.30;56.80;;;;;;5087542;28;20286;-82
2021/05/13 10:46:25;;;;;;;;;;;30.50;54.50;;;;;;5085131;28;19908;-81
2021/05/13 10:48:50;;;;;;;;;;;29.00;55.40;;;;;;5084591;28;19919;-82
2021/05/13 10:51:24;;;;;;;;;;;28.30;54.90;;;;;;5082028;28;19908;-82
2021/05/13 10:53:49;;;;;;;0.88;0.63;;;28.00;55.90;;;;;;5082586;28;19904;-81
2021/05/13 10:56:16;;;;;;;0.83;0.60;;;27.20;56.30;;;;;;5085675;28;20402;-83
2021/05/13 10:58:59;;;;;;;1.63;0.60;;;27.80;57.10;;;;;;5081255;28;20024;-82
2021/05/13 11:01:39;;;;;;;;;;;27.80;56.70;;;;;;5085133;28;20027;-81
2021/05/13 11:04:20;;;;;;;;;;;28.70;57.70;;;;;;5087148;28;19904;-81
2021/05/13 11:06:46;;;;;;;;;;;27.00;57.70;;;;;;5085004;28;19904;-82
2021/05/13 11:09:16;;;;;;;;;;;25.70;59.80;;;;;;5086755;28;20400;-82
2021/05/13 11:12:00;;;;;;;;;;;24.30;62.80;;;;;;5084200;28;19904;-81
2021/05/13 11:14:28;;;;;;;;;;;23.00;65.90;;;;;;5084508;28;20351;-80
2021/05/13 11:16:56;;;;;;;;;;;21.70;68.30;;;;;;5084535;28;19908;-82
2021/05/13 11:19:22;;;;;;;;;;;21.00;69.00;;;;;;5082611;28;20283;-81
2021/05/13 11:22:14;;;;;;;;;;;20.60;71.20;;;;;;5082536;28;19953;-81
2021/05/13 11:24:41;;;;;;;;;;;20.50;72.40;;;;;;5080491;28;20355;-81
2021/05/13 11:27:07;;;;;;;;;;;20.50;70.50;;;;;;5082303;28;19911;-81
2021/05/13 11:29:43;;;;;;;;;;;20.50;70.80;;;;;;5083219;28;19911;-81
2021/05/13 11:32:09;;;;;;;;;;;20.30;71.20;;;;;;5076658;28;20347;-82
2021/05/13 11:34:35;;;;;;;;;;;20.20;73.00;;;;;;5072381;28;19908;-82
2021/05/13 11:37:01;;;;;;;;;;;19.90;76.50;;;;;;5073353;28;19911;-80
2021/05/13 11:39:26;;;;;;;;;;;19.70;76.40;;;;;;5072988;28;20300;-80
2021/05/13 11:41:58;;;;;;;;;;;19.50;78.30;;;;;;5074457;28;19911;-80
2021/05/13 11:44:23;;;;;;;;;;;19.70;80.70;;;;;;5073867;28;19904;-81
2021/05/13 11:46:52;;;;;;;;;;;19.80;82.70;;;;;;5072885;28;20290;-82
2021/05/13 11:49:18;;;;;;;;;;;19.80;84.30;;;;;;5072603;28;19909;-81
2021/05/13 11:51:43;;;;;;;;;;;19.70;84.50;;;;;;5073178;28;19911;-80
2021/05/13 11:54:09;;;;;;;;;;;19.80;86.00;;;;;;5072886;28;19989;-82
2021/05/13 11:56:38;;;;;;;;;;;19.60;90.00;;;;;;5072897;28;19912;-80
2021/05/13 11:59:08;;;;;;;;;;;19.70;92.90;;;;;;5072061;28;20359;-82
2021/05/13 12:01:37;;;;;;;;;;;19.70;83.70;;;;;;5071810;28;19904;-81
2021/05/13 12:04:06;;;;;;;;;;;19.60;87.30;;;;;;5072095;28;20382;-81
2021/05/13 12:06:43;;;;;;;;;;;19.60;79.90;;;;;;5072369;28;20321;-81
2021/05/13 12:09:08;;;;;;;;;;;19.30;80.30;;;;;;5073316;28;20371;-81
2021/05/13 12:11:35;;;;;;;;;;;19.20;82.40;;;;;;5072515;28;19904;-82
2021/05/13 12:14:04;;;;;;;;;;;19.50;82.00;;;;;;5072481;28;19904;-81
2021/05/13 12:16:30;;;;;;;;;;;19.60;83.40;;;;;;5072694;28;20259;-81
2021/05/13 12:18:57;;;;;;;;;;;19.90;82.30;;;;;;5072600;28;19916;-81
2021/05/13 12:21:22;;;;;;;;;;;20.10;84.60;;;;;;5072845;28;20011;-82
2021/05/13 12:23:48;;;;;;;;;;;20.40;81.10;;;;;;5073180;28;20375;-81
2021/05/13 12:26:19;;;;;;;;;;;20.30;78.90;;;;;;5073141;28;19983;-82
2021/05/13 12:28:45;;;;;;;;;;;20.20;80.40;;;;;;5072466;28;19904;-81
2021/05/13 12:31:22;;;;;;;;;;;20.30;75.10;;;;;;5072305;28;19915;-81
2021/05/13 12:33:48;;;;;;;;;;;20.40;78.70;;;;;;5072749;28;19904;-83
2021/05/13 12:36:13;;;;;;;;;;;20.50;76.00;;;;;;5072698;28;19919;-83
2021/05/13 12:38:42;;;;;;;;;;;20.60;79.90;;;;;;5072558;28;19912;-82
2021/05/13 12:41:14;;;;;;;;;;;20.40;74.70;;;;;;5072599;28;20321;-82
2021/05/13 12:43:46;;;;;;;;;;;20.70;77.10;;;;;;5072146;28;21535;-82
2021/05/13 12:46:16;;;;;;;;;;;21.10;78.50;;;;;;5072778;28;19908;-82
2021/05/13 12:48:42;;;;;;;;;;;21.50;76.80;;;;;;5072912;28;19909;-83
2021/05/13 12:51:08;;;;;;;;;;;21.60;79.20;;;;;;5074222;28;19953;-80
2021/05/13 12:53:33;;;;;;;;;;;21.70;72.60;;;;;;5073206;28;19908;-81
2021/05/13 12:55:59;;;;;;;;;;;21.90;75.10;;;;;;5072565;28;19919;-82
2021/05/13 12:58:26;;;;;;;;;;;22.40;73.60;;;;;;5072085;28;19912;-83
2021/05/13 13:00:52;;;;;;;;;;;22.30;75.80;;;;;;5072519;28;19915;-80
2021/05/13 13:03:18;;;;;;;;;;;22.70;78.80;;;;;;5073041;28;19909;-83
2021/05/13 13:05:44;;;;;;;;;;;22.90;72.40;;;;;;5072398;28;19909;-82
2021/05/13 13:08:09;;;;;;;;;;;22.50;71.80;;;;;;5072901;28;19930;-81
2021/05/13 13:10:39;;;;;;;;;;;22.20;74.70;;;;;;5074563;28;20348;-83
2021/05/13 13:13:07;;;;;;;;;;;21.90;74.60;;;;;;5072160;28;19908;-83
2021/05/13 13:15:36;;;;;;;;;;;22.00;76.20;;;;;;5073263;28;20159;-83
2021/05/13 13:18:09;;;;;;;;;;;21.90;72.50;;;;;;5074366;28;19913;-82
2021/05/13 13:20:35;;;;;;;;;;;22.30;74.60;;;;;;5073178;28;19908;-81
2021/05/13 13:23:16;;;;;;;;;;;22.20;69.30;;;;;;5072611;28;20389;-83
2021/05/13 13:25:42;;;;;;;;;;;22.10;72.00;;;;;;5072525;28;19913;-82
2021/05/13 13:28:07;;;;;;;;;;;21.90;71.20;;;;;;5072204;28;20134;-83
2021/05/13 13:30:33;;;;;;;;;;;22.00;74.40;;;;;;5072394;28;20054;-83
2021/05/13 13:33:00;;;;;;;;;;;22.50;73.50;;;;;;5073360;28;20256;-83
2021/05/13 13:35:27;;;;;;;;;;;22.30;76.30;;;;;;5075204;28;20326;-83
2021/05/13 13:37:52;;;;;;;;;;;22.00;79.10;;;;;;5074319;28;19908;-81
2021/05/13 13:40:18;;;;;;;;;;;21.50;81.80;;;;;;5075586;28;20299;-81
2021/05/13 13:42:43;;;;;;;;;;;20.20;91.30;;;;;;5074437;28;20283;-81
2021/05/13 13:45:09;;;;;;;;;;;19.00;99.90;;;;;;5071090;28;19909;-79
2021/05/13 13:47:36;;;;;;;;;;;17.50;99.90;;;;;;5070634;28;20379;-80
2021/05/13 13:50:01;;;;;;;;;;;17.10;99.90;;;;;;5070714;28;19909;-80
2021/05/13 13:52:27;;;;;;;;;;;16.80;99.90;;;;;;5070481;28;19916;-78
2021/05/13 13:54:52;;;;;;;;;;;16.30;99.90;;;;;;5071768;28;19916;-80
2021/05/13 13:57:18;;;;;;;;;;;16.00;99.90;;;;;;5073231;28;20570;-81
2021/05/13 13:59:43;;;;;;;;;;;15.90;99.90;;;;;;5080831;28;19912;-80
2021/05/13 14:02:09;;;;;;;;;;;15.70;99.90;;;;;;5080768;28;19919;-79
2021/05/13 14:04:34;;;;;;;;;;;15.50;99.90;;;;;;5081348;28;19916;-79
2021/05/13 14:06:59;;;;;;;;;;;15.50;99.90;;;;;;5079490;28;19947;-81